Time;durP1;ratioP1;P1;durP2;ratioP2;P2;SDS_P1;SDS_P2;PMS_P1;PMS_P2;Temp;Humidity;BMP_temperature;BMP_pressure;BME280_temperature;BME280_humidity;BME280_pressure;Samples;Min_cycle;Max_cycle;Signal;HPM_P1;HPM_P2
2021/12/09 00:01:25;;;;;;;66.02;24.23;;;;;;;-2.71;78.81;100047.03;1801315;77;99330;-74
2021/12/09 00:03:57;;;;;;;71.82;24.30;;;;;;;-2.73;78.79;100039.60;1811001;77;25747;-76
2021/12/09 00:06:27;;;;;;;60.05;22.40;;;;;;;-2.77;78.84;100040.03;1805548;77;25682;-74
2021/12/09 00:08:57;;;;;;;72.45;25.43;;;;;;;-2.77;78.87;100041.34;1811372;77;99067;-74
2021/12/09 00:11:23;;;;;;;75.20;25.70;;;;;;;-2.77;78.92;100040.03;1803663;77;25313;-75
2021/12/09 00:13:50;;;;;;;73.28;23.35;;;;;;;-2.77;78.94;100033.92;1806331;77;99208;-74
2021/12/09 00:16:17;;;;;;;75.32;25.62;;;;;;;-2.75;78.97;100042.66;1806927;77;25711;-74
2021/12/09 00:18:43;;;;;;;69.60;25.82;;;;;;;-2.73;79.01;100043.53;1806680;77;25881;-75
2021/12/09 00:21:10;;;;;;;68.22;25.48;;;;;;;-2.72;79.00;100046.59;1811242;77;99084;-73
2021/12/09 00:23:36;;;;;;;61.63;21.68;;;;;;;-2.70;79.09;100051.41;1808897;77;25812;-75
2021/12/09 00:26:03;;;;;;;62.40;24.20;;;;;;;-2.70;79.02;100024.74;1781948;79;99046;-73
2021/12/09 00:28:28;;;;;;;59.53;22.05;;;;;;;-2.71;79.00;100022.99;1780983;79;25710;-73
2021/12/09 00:30:56;;;;;;;62.23;23.32;;;;;;;-2.73;78.95;100029.11;1784369;79;30504;-73
2021/12/09 00:33:22;;;;;;;70.50;26.57;;;;;;;-2.75;79.00;100033.48;1783647;79;98908;-73
2021/12/09 00:35:55;;;;;;;74.20;24.82;;;;;;;-2.75;79.07;100025.17;1779479;79;25731;-74
2021/12/09 00:38:33;;;;;;;62.53;23.65;;;;;;;-2.76;79.06;100031.30;1778144;79;99082;-74
2021/12/09 00:40:50;;;;;;;64.07;23.98;;;;;;;-2.75;79.11;100019.05;1786172;79;25766;-74
2021/12/09 00:43:18;;;;;;;70.87;26.17;;;;;;;-2.75;79.11;100024.30;1785123;79;99225;-74
2021/12/09 00:45:46;;;;;;;72.60;23.57;;;;;;;-2.76;79.09;100022.55;1784870;79;25848;-74
2021/12/09 00:48:12;;;;;;;64.95;24.25;;;;;;;-2.75;79.13;100021.67;1785221;79;26425;-74
2021/12/09 00:50:38;;;;;;;68.02;25.57;;;;;;;-2.74;79.23;100019.49;1779146;79;99010;-73
2021/12/09 00:53:04;;;;;;;74.85;25.75;;;;;;;-2.72;79.26;100014.69;1779670;79;25874;-75
2021/12/09 00:55:30;;;;;;;71.92;25.62;;;;;;;-2.71;79.26;100011.62;1778963;79;99131;-74
2021/12/09 00:57:56;;;;;;;68.20;24.47;;;;;;;-2.67;79.33;100015.56;1781430;78;26509;-73
2021/12/09 01:00:22;;;;;;;60.90;24.30;;;;;;;-2.65;79.34;100014.25;1777914;79;25718;-74
2021/12/09 01:02:49;;;;;;;78.25;25.37;;;;;;;-2.64;79.35;100009.44;1773581;78;99045;-73
2021/12/09 01:05:15;;;;;;;69.95;25.30;;;;;;;-2.64;79.31;100012.06;1781832;79;26359;-74
2021/12/09 01:07:41;;;;;;;71.90;25.00;;;;;;;-2.62;79.30;100015.56;1779626;78;99321;-74
2021/12/09 01:10:12;;;;;;;76.30;27.32;;;;;;;-2.63;79.39;100010.75;1778092;79;25726;-74
2021/12/09 01:12:38;;;;;;;72.15;25.08;;;;;;;-2.62;79.38;100007.25;1710014;81;25792;-74
2021/12/09 01:15:08;;;;;;;62.88;21.85;;;;;;;-2.59;79.45;100002.41;1709983;81;99650;-74
2021/12/09 01:17:34;;;;;;;79.32;27.85;;;;;;;-2.59;79.30;100000.22;1722613;81;26373;-74
2021/12/09 01:20:00;;;;;;;71.28;24.90;;;;;;;-2.62;79.35;99990.64;1724591;80;99212;-74
2021/12/09 01:22:34;;;;;;;70.95;24.70;;;;;;;-2.62;79.41;99994.13;1730715;80;25985;-76
2021/12/09 01:24:54;;;;;;;67.92;25.12;;;;;;;-2.59;79.44;99992.35;1727923;80;25731;-74
2021/12/09 01:27:20;;;;;;;81.22;27.93;;;;;;;-2.59;79.40;99993.66;1722364;81;97941;-74
2021/12/09 01:29:53;;;;;;;76.72;28.52;;;;;;;-2.60;79.42;99991.51;1734289;81;27214;-74
2021/12/09 01:32:14;;;;;;;76.92;27.77;;;;;;;-2.58;79.43;99985.80;1735033;80;98067;-74
2021/12/09 01:34:40;;;;;;;74.45;26.00;;;;;;;-2.60;79.40;99978.83;1724578;81;25771;-72
2021/12/09 01:37:06;;;;;;;79.77;27.27;;;;;;;-2.60;79.43;99982.33;1726537;81;99188;-72
2021/12/09 01:39:33;;;;;;;72.50;24.90;;;;;;;-2.60;79.52;99994.58;1735526;80;27429;-72
2021/12/09 01:42:00;;;;;;;71.07;25.27;;;;;;;-2.61;79.45;99998.94;1733609;80;26356;-73
2021/12/09 01:44:27;;;;;;;73.52;26.10;;;;;;;-2.60;79.53;100000.69;1732288;80;98953;-73
2021/12/09 01:46:56;;;;;;;68.65;25.35;;;;;;;-2.56;79.56;99983.17;1727352;81;25716;-74
2021/12/09 01:49:22;;;;;;;77.30;26.27;;;;;;;-2.57;79.52;99982.73;1726477;81;99101;-72
2021/12/09 01:51:48;;;;;;;79.97;28.45;;;;;;;-2.58;79.49;99984.48;1730860;81;27465;-72
2021/12/09 01:54:15;;;;;;;69.22;25.55;;;;;;;-2.61;79.51;99989.77;1729721;80;26456;-73
2021/12/09 01:56:42;;;;;;;71.05;25.17;;;;;;;-2.61;79.51;99987.14;1728026;80;98987;-74
2021/12/09 01:59:08;;;;;;;76.33;25.02;;;;;;;-2.62;79.49;99993.27;1730735;80;25798;-72
2021/12/09 02:01:36;;;;;;;83.12;27.50;;;;;;;-2.63;79.53;99987.58;1715047;81;99184;-72
2021/12/09 02:04:06;;;;;;;73.33;25.45;;;;;;;-2.64;79.52;99996.33;1724663;80;27388;-74
2021/12/09 02:06:33;;;;;;;82.05;26.70;;;;;;;-2.68;79.48;99988.02;1716114;81;26307;-73
2021/12/09 02:09:00;;;;;;;74.25;25.60;;;;;;;-2.68;79.55;99990.64;1726370;80;99004;-74
2021/12/09 02:11:25;;;;;;;73.45;26.37;;;;;;;-2.67;79.63;99986.70;1722881;80;25834;-74
2021/12/09 02:13:56;;;;;;;68.35;25.17;;;;;;;-2.63;79.68;99987.58;1725772;81;98922;-74
2021/12/09 02:16:21;;;;;;;75.08;27.35;;;;;;;-2.63;79.63;99981.89;1732562;81;27435;-73
2021/12/09 02:18:48;;;;;;;69.37;23.90;;;;;;;-2.63;79.66;99978.40;1736766;80;25940;-73
2021/12/09 02:21:19;;;;;;;77.15;26.02;;;;;;;-2.62;79.65;99978.83;1732198;81;98912;-73
2021/12/09 02:23:50;;;;;;;72.67;24.70;;;;;;;-2.63;79.64;99973.15;1736733;81;25792;-74
2021/12/09 02:26:21;;;;;;;82.47;27.98;;;;;;;-2.65;79.56;99970.97;1771578;78;99200;-74
2021/12/09 02:28:48;;;;;;;76.70;25.32;;;;;;;-2.70;79.59;99970.09;1776613;78;27380;-74
2021/12/09 02:31:15;;;;;;;75.20;26.12;;;;;;;-2.71;79.68;99963.10;1768261;78;99005;-74
2021/12/09 02:33:42;;;;;;;76.40;27.40;;;;;;;-2.73;79.67;99964.41;1774687;78;25936;-74
2021/12/09 02:36:08;;;;;;;82.40;25.75;;;;;;;-2.74;79.68;99961.80;1771225;79;25776;-74
2021/12/09 02:38:42;;;;;;;70.72;25.48;;;;;;;-2.73;79.72;99966.16;1775975;78;98845;-74
2021/12/09 02:41:03;;;;;;;75.32;26.40;;;;;;;-2.72;79.68;99963.54;1779435;78;27452;-73
2021/12/09 02:43:29;;;;;;;79.70;27.45;;;;;;;-2.74;79.76;99967.91;1770664;78;99111;-73
2021/12/09 02:45:57;;;;;;;71.25;25.40;;;;;;;-2.72;79.80;99967.47;1771652;78;25797;-75
2021/12/09 02:48:25;;;;;;;75.87;26.90;;;;;;;-2.71;79.75;99972.28;1756853;80;27555;-74
2021/12/09 02:50:52;;;;;;;73.67;26.40;;;;;;;-2.69;79.77;99962.66;1753974;80;99196;-74
2021/12/09 02:53:20;;;;;;;80.95;28.57;;;;;;;-2.73;79.69;99970.97;1773304;79;27509;-73
2021/12/09 02:55:46;;;;;;;82.62;28.65;;;;;;;-2.71;79.82;99965.72;1750438;80;99022;-73
2021/12/09 02:58:13;;;;;;;84.95;29.55;;;;;;;-2.70;79.81;99953.05;1741175;80;25971;-73
2021/12/09 03:00:57;;;;;;;78.47;27.98;;;;;;;-2.71;79.87;99954.80;1754901;80;25771;-72
2021/12/09 03:03:23;;;;;;;78.85;27.52;;;;;;;-2.71;79.81;99954.80;1749987;80;98768;-73
2021/12/09 03:05:56;;;;;;;82.45;26.55;;;;;;;-2.70;79.90;99959.17;1750688;79;27747;-73
2021/12/09 03:08:34;;;;;;;89.60;29.48;;;;;;;-2.68;79.90;99958.73;1751735;80;98840;-73
2021/12/09 03:10:52;;;;;;;86.67;30.05;;;;;;;-2.65;79.94;99964.41;1750299;79;25875;-72
2021/12/09 03:13:17;;;;;;;88.17;29.70;;;;;;;-2.62;79.91;99967.03;1750569;80;99114;-72
2021/12/09 03:15:43;;;;;;;83.78;28.07;;;;;;;-2.60;79.98;99971.84;1760888;81;26289;-72
2021/12/09 03:18:10;;;;;;;77.45;26.60;;;;;;;-2.59;79.88;99977.92;1754019;79;46293;-72
2021/12/09 03:20:37;;;;;;;74.87;26.95;;;;;;;-2.62;79.83;99980.14;1751632;79;98950;-75
2021/12/09 03:23:03;;;;;;;74.27;27.82;;;;;;;-2.63;79.94;99988.89;1752883;79;25802;-75
2021/12/09 03:25:28;;;;;;;81.90;29.10;;;;;;;-2.59;79.99;100002.84;1750598;79;99185;-72
2021/12/09 03:27:54;;;;;;;77.87;28.07;;;;;;;-2.59;79.98;100008.97;1741237;80;26009;-75
2021/12/09 03:30:21;;;;;;;77.17;28.12;;;;;;;-2.57;80.00;100016.84;1735954;80;28146;-74
2021/12/09 03:32:47;;;;;;;70.15;26.77;;;;;;;-2.56;80.02;100012.90;1737600;80;99089;-73
2021/12/09 03:35:14;;;;;;;73.52;28.32;;;;;;;-2.55;79.98;100008.09;1731653;81;25984;-74
2021/12/09 03:37:42;;;;;;;71.80;26.57;;;;;;;-2.57;79.99;100005.91;1733009;80;99393;-75
2021/12/09 03:40:10;;;;;;;77.90;26.50;;;;;;;-2.56;80.01;100003.72;1732613;80;25749;-75
2021/12/09 03:42:36;;;;;;;70.80;27.02;;;;;;;-2.55;80.02;99997.59;1740240;81;27549;-75
2021/12/09 03:45:05;;;;;;;75.65;26.23;;;;;;;-2.55;79.99;99994.09;1739294;80;99004;-74
2021/12/09 03:47:31;;;;;;;72.15;26.10;;;;;;;-2.55;80.06;99986.23;1738127;81;25734;-75
2021/12/09 03:49:58;;;;;;;80.30;26.97;;;;;;;-2.54;80.06;99980.98;1734733;81;98866;-75
2021/12/09 03:52:26;;;;;;;80.95;27.37;;;;;;;-2.51;80.10;99980.97;1737153;80;25749;-75
2021/12/09 03:54:53;;;;;;;82.97;28.50;;;;;;;-2.49;80.09;99975.28;1732616;81;28138;-74
2021/12/09 03:57:20;;;;;;;69.60;23.95;;;;;;;-2.56;80.02;99951.25;1735963;81;98856;-74
2021/12/09 03:59:46;;;;;;;81.25;27.67;;;;;;;-2.49;80.03;99967.85;1739011;81;26467;-75
2021/12/09 04:02:14;;;;;;;70.57;24.30;;;;;;;-2.49;80.06;99973.10;1723479;81;98907;-72
2021/12/09 04:04:40;;;;;;;68.37;24.37;;;;;;;-2.49;80.03;99967.41;1749666;80;26118;-72
2021/12/09 04:07:07;;;;;;;77.42;25.85;;;;;;;-2.51;79.99;99956.48;1735830;81;99210;-71
2021/12/09 04:09:33;;;;;;;77.97;27.87;;;;;;;-2.53;80.05;99949.93;1746030;80;25671;-72
2021/12/09 04:11:59;;;;;;;72.72;26.33;;;;;;;-2.50;80.13;99947.73;1759505;79;25836;-73
2021/12/09 04:14:25;;;;;;;73.02;25.08;;;;;;;-2.49;80.08;99958.23;1749444;80;98926;-74
2021/12/09 04:16:52;;;;;;;71.72;25.62;;;;;;;-2.49;80.06;99955.61;1740052;80;25803;-72
2021/12/09 04:19:18;;;;;;;66.92;24.60;;;;;;;-2.51;80.04;99962.61;1754087;80;99046;-73
2021/12/09 04:21:46;;;;;;;69.42;26.75;;;;;;;-2.56;80.06;99939.87;1753198;80;25780;-73
2021/12/09 04:24:15;;;;;;;62.85;24.32;;;;;;;-2.50;80.10;99957.80;1729358;81;25741;-73
2021/12/09 04:26:46;;;;;;;69.70;27.00;;;;;;;-2.51;80.04;99965.23;1726996;81;98839;-73
2021/12/09 04:29:14;;;;;;;64.10;24.37;;;;;;;-2.51;80.12;99963.92;1806662;77;25911;-73
2021/12/09 04:31:42;;;;;;;70.75;25.85;;;;;;;-2.50;80.08;99962.17;1799565;77;99115;-73
2021/12/09 04:34:10;;;;;;;67.85;24.85;;;;;;;-2.53;80.04;99962.17;1800225;78;26421;-73
2021/12/09 04:36:38;;;;;;;67.27;24.80;;;;;;;-2.51;80.15;99966.55;1797764;78;25704;-73
2021/12/09 04:39:05;;;;;;;62.85;21.68;;;;;;;-2.50;80.16;99968.29;1800250;77;98943;-73
2021/12/09 04:41:31;;;;;;;66.15;24.52;;;;;;;-2.48;80.12;99973.53;1794531;77;25689;-73
2021/12/09 04:43:57;;;;;;;60.05;24.55;;;;;;;-2.50;80.11;99970.04;1797009;78;98920;-73
2021/12/09 04:46:22;;;;;;;65.40;24.87;;;;;;;-2.50;80.11;99972.23;1799427;77;34155;-73
2021/12/09 04:48:48;;;;;;;67.75;23.90;;;;;;;-2.50;80.14;99968.29;1790853;77;30444;-73
2021/12/09 04:51:14;;;;;;;62.08;23.65;;;;;;;-2.47;80.18;99972.66;1751614;80;98873;-73
2021/12/09 04:53:41;;;;;;;63.45;22.22;;;;;;;-2.43;80.19;99967.84;1794850;77;25752;-73
2021/12/09 04:56:07;;;;;;;68.07;26.25;;;;;;;-2.45;80.13;99979.66;1798062;77;98816;-73
2021/12/09 04:58:33;;;;;;;67.03;24.12;;;;;;;-2.43;80.17;99970.47;1792843;78;25719;-73
2021/12/09 05:01:03;;;;;;;61.05;24.55;;;;;;;-2.41;80.20;99956.91;1797125;77;25754;-72
2021/12/09 05:03:29;;;;;;;70.40;24.43;;;;;;;-2.41;80.19;99955.16;1795846;78;98584;-74
2021/12/09 05:05:56;;;;;;;74.75;25.27;;;;;;;-2.40;80.18;99965.21;1793807;77;25761;-74
2021/12/09 05:08:30;;;;;;;69.75;26.55;;;;;;;-2.41;80.16;99960.41;1790299;78;98918;-72
2021/12/09 05:13:30;;;;;;;72.17;25.67;;;;;;;-2.41;80.15;99947.72;1796464;78;105044;-73
2021/12/09 05:15:58;;;;;;;65.57;24.60;;;;;;;-2.42;80.16;99944.22;1789267;78;25755;-72
2021/12/09 05:18:27;;;;;;;64.10;23.32;;;;;;;-2.40;80.19;99942.91;1796965;78;26568;-74
2021/12/09 05:20:54;;;;;;;60.33;24.25;;;;;;;-2.40;80.13;99949.47;1792358;78;99262;-74
2021/12/09 05:23:23;;;;;;;67.62;26.93;;;;;;;-2.43;80.11;99958.66;1802093;78;25871;-73
2021/12/09 05:25:49;;;;;;;65.25;23.65;;;;;;;-2.45;80.12;99964.34;1780286;78;99168;-73
2021/12/09 05:28:16;;;;;;;62.53;24.75;;;;;;;-2.44;80.13;99968.72;1755580;80;26621;-73
2021/12/09 05:33:30;;;;;;;60.95;22.95;;;;;;;-2.41;80.19;99984.45;1751185;80;98927;-72
2021/12/09 05:35:56;;;;;;;71.53;25.68;;;;;;;-2.39;80.17;99997.14;1753899;80;33713;-72
2021/12/09 05:38:22;;;;;;;63.33;23.67;;;;;;;-2.39;80.17;99992.77;1746079;80;99333;-72
2021/12/09 05:40:49;;;;;;;75.80;25.43;;;;;;;-2.40;80.09;100005.89;1737738;80;25953;-72
2021/12/09 05:43:16;;;;;;;73.80;26.55;;;;;;;-2.42;80.14;100019.02;1732616;80;99213;-72
2021/12/09 05:45:43;;;;;;;79.50;27.62;;;;;;;-2.41;80.18;100022.07;1726988;81;27504;-72
2021/12/09 05:48:10;;;;;;;67.50;24.90;;;;;;;-2.38;80.16;100023.37;1733291;80;26322;-72
2021/12/09 05:50:38;;;;;;;67.92;25.75;;;;;;;-2.38;80.15;100012.88;1744483;80;99208;-75
2021/12/09 05:53:05;;;;;;;71.62;26.37;;;;;;;-2.37;80.13;100008.51;1759664;80;26627;-72
2021/12/09 05:55:32;;;;;;;64.90;25.08;;;;;;;-2.37;80.16;100023.81;1755759;80;99325;-72
2021/12/09 05:57:57;;;;;;;65.03;25.00;;;;;;;-2.36;80.19;100013.75;1745393;79;27377;-72
2021/12/09 06:00:24;;;;;;;68.78;24.27;;;;;;;-2.34;80.18;100009.38;1749017;80;32890;-73
2021/12/09 06:02:50;;;;;;;68.75;25.57;;;;;;;-2.35;80.14;100010.69;1736316;80;99167;-73
2021/12/09 06:05:16;;;;;;;66.77;24.18;;;;;;;-2.35;80.14;100014.63;1684147;83;36001;-72
2021/12/09 06:07:43;;;;;;;63.20;24.40;;;;;;;-2.33;80.17;100015.50;1691109;83;99306;-72
2021/12/09 06:10:09;;;;;;;76.28;27.67;;;;;;;-2.35;80.11;100018.12;1693213;83;27404;-72
2021/12/09 06:12:37;;;;;;;74.65;26.85;;;;;;;-2.35;80.14;100010.69;1737907;80;26392;-72
2021/12/09 06:15:06;;;;;;;71.42;26.97;;;;;;;-2.36;80.08;99998.01;1744974;80;99202;-73
2021/12/09 06:17:32;;;;;;;76.40;26.77;;;;;;;-2.34;80.19;100001.50;1748780;78;25762;-72
2021/12/09 06:19:58;;;;;;;74.07;29.07;;;;;;;-2.33;80.14;100002.38;1747974;79;99058;-72
2021/12/09 06:22:24;;;;;;;74.22;28.02;;;;;;;-2.32;80.19;100006.75;1746957;80;27401;-72
2021/12/09 06:24:50;;;;;;;78.07;29.18;;;;;;;-2.31;80.20;100009.38;1742780;80;32957;-75
2021/12/09 06:27:16;;;;;;;72.32;25.35;;;;;;;-2.30;80.20;100004.56;1796572;77;99015;-74
2021/12/09 06:29:42;;;;;;;75.20;26.77;;;;;;;-2.29;80.17;100006.74;1774050;78;26369;-74
2021/12/09 06:32:08;;;;;;;79.07;28.87;;;;;;;-2.27;80.18;99994.49;1739227;80;99068;-73
2021/12/09 06:34:35;;;;;;;76.72;26.68;;;;;;;-2.26;80.21;99989.68;1764809;80;27328;-72
2021/12/09 06:37:01;;;;;;;79.30;27.67;;;;;;;-2.25;80.19;99994.05;1734390;80;27209;-72
2021/12/09 06:39:27;;;;;;;77.12;27.05;;;;;;;-2.29;80.12;99985.31;1757414;79;98855;-74
2021/12/09 06:41:53;;;;;;;78.47;26.82;;;;;;;-2.30;80.14;99980.94;1757427;80;26481;-72
2021/12/09 06:44:19;;;;;;;65.28;24.87;;;;;;;-2.31;80.05;99988.38;1755080;80;98816;-73
2021/12/09 06:46:45;;;;;;;87.35;28.52;;;;;;;-2.35;80.11;99993.20;1728818;80;28113;-74
2021/12/09 06:49:11;;;;;;;80.12;27.77;;;;;;;-2.32;80.20;99993.19;1769258;79;99293;-72
2021/12/09 06:51:37;;;;;;;68.25;24.60;;;;;;;-2.30;80.22;99995.38;1765027;79;30442;-73
2021/12/09 06:54:03;;;;;;;78.62;28.23;;;;;;;-2.31;80.14;99991.00;1774068;79;25970;-72
2021/12/09 06:56:33;;;;;;;71.35;27.40;;;;;;;-2.33;80.14;99979.63;1769878;79;98884;-73
2021/12/09 06:59:01;;;;;;;79.22;27.90;;;;;;;-2.32;80.19;99977.88;1767684;78;27431;-73
2021/12/09 07:01:27;;;;;;;72.05;27.58;;;;;;;-2.29;80.25;99993.19;1771888;79;99379;-73
2021/12/09 07:03:54;;;;;;;81.12;27.95;;;;;;;-2.25;80.25;99988.80;1748342;80;25556;-73
2021/12/09 07:06:21;;;;;;;70.47;27.45;;;;;;;-2.23;80.23;99983.11;1746620;80;26012;-73
2021/12/09 07:08:49;;;;;;;77.50;26.85;;;;;;;-2.20;80.21;99990.11;1767519;79;98999;-73
2021/12/09 07:11:19;;;;;;;73.90;25.80;;;;;;;-2.21;80.18;99987.05;1775793;78;27945;-72
2021/12/09 07:13:48;;;;;;;78.78;27.65;;;;;;;-2.20;80.20;99982.23;1767428;79;99014;-72
2021/12/09 07:16:14;;;;;;;88.65;30.43;;;;;;;-2.19;80.23;99974.79;1766076;79;25804;-72
2021/12/09 07:18:41;;;;;;;89.40;30.92;;;;;;;-2.19;80.21;99962.98;1766942;78;27444;-73
2021/12/09 07:21:07;;;;;;;83.45;29.27;;;;;;;-2.17;80.23;99975.22;1767891;78;98861;-73
2021/12/09 07:23:36;;;;;;;87.72;28.32;;;;;;;-2.17;80.19;99988.34;1772929;78;27429;-73
2021/12/09 07:26:03;;;;;;;86.57;29.77;;;;;;;-2.18;80.14;99979.16;1770910;79;98953;-74
2021/12/09 07:28:29;;;;;;;86.25;28.65;;;;;;;-2.20;80.19;99990.11;1736385;80;26371;-73
2021/12/09 07:30:55;;;;;;;87.45;29.95;;;;;;;-2.20;80.15;99981.79;1745445;80;35615;-73
2021/12/09 07:33:21;;;;;;;83.82;28.85;;;;;;;-2.19;80.24;99991.85;1729606;81;98934;-73
2021/12/09 07:35:47;;;;;;;74.17;27.35;;;;;;;-2.18;80.21;100001.48;1738979;81;27423;-73
2021/12/09 07:38:15;;;;;;;75.62;26.80;;;;;;;-2.16;80.25;100003.22;1714387;81;99029;-73
2021/12/09 07:40:41;;;;;;;86.42;29.52;;;;;;;-2.16;80.24;100003.66;1727892;82;25753;-73
2021/12/09 07:43:07;;;;;;;81.40;29.23;;;;;;;-2.14;80.30;100004.53;1708404;81;26438;-74
2021/12/09 07:45:33;;;;;;;78.05;28.80;;;;;;;-2.12;80.26;100004.95;1711495;81;99246;-73
2021/12/09 07:48:00;;;;;;;88.65;30.30;;;;;;;-2.12;80.22;100008.02;1712295;81;27870;-73
2021/12/09 07:50:31;;;;;;;86.90;27.77;;;;;;;-2.11;80.31;100007.15;1709395;81;99164;-73
2021/12/09 07:52:59;;;;;;;80.25;27.48;;;;;;;-2.10;80.25;100002.33;1711588;81;25862;-74
2021/12/09 07:55:26;;;;;;;97.57;32.78;;;;;;;-2.10;80.24;100009.77;1712657;81;99120;-69
2021/12/09 07:57:52;;;;;;;84.95;30.57;;;;;;;-2.10;80.29;100010.20;1707307;81;25815;-70
2021/12/09 08:00:32;;;;;;;95.03;33.02;;;;;;;-2.07;80.31;100016.77;1713464;81;27506;-70
2021/12/09 08:03:00;;;;;;;83.07;29.42;;;;;;;-2.08;80.26;100017.64;1739822;81;99229;-75
2021/12/09 08:05:31;;;;;;;86.87;29.50;;;;;;;-2.04;80.34;100020.69;1744067;80;25783;-70
2021/12/09 08:07:57;;;;;;;84.65;30.02;;;;;;;-2.05;80.29;100018.95;1734416;81;99086;-70
2021/12/09 08:10:24;;;;;;;92.25;29.85;;;;;;;-2.06;80.23;100027.70;1739585;81;25805;-71
2021/12/09 08:12:51;;;;;;;83.67;28.57;;;;;;;-2.03;80.34;100031.20;1740928;80;27511;-71
2021/12/09 08:15:17;;;;;;;79.35;28.87;;;;;;;-2.02;80.27;100021.56;1740796;81;99111;-72
2021/12/09 08:17:58;;;;;;;87.72;30.35;;;;;;;-2.02;80.24;100030.75;1733953;81;25793;-72
2021/12/09 08:20:17;;;;;;;92.08;31.10;;;;;;;-2.01;80.29;100033.81;1736633;80;99104;-75
2021/12/09 08:22:44;;;;;;;86.42;31.07;;;;;;;-1.98;80.35;100031.19;1739092;80;25827;-71
2021/12/09 08:25:13;;;;;;;94.07;30.75;;;;;;;-1.96;80.31;100027.67;1728833;80;99291;-73
2021/12/09 08:27:43;;;;;;;84.45;30.62;;;;;;;-1.93;80.34;100037.30;1734182;81;26539;-72
2021/12/09 08:30:12;;;;;;;90.65;30.17;;;;;;;-1.92;80.30;100046.05;1747470;80;25925;-72
2021/12/09 08:32:38;;;;;;;88.60;28.67;;;;;;;-1.92;80.30;100046.92;1790708;78;99024;-71
2021/12/09 08:35:06;;;;;;;80.47;29.27;;;;;;;-1.92;80.33;100046.92;1789745;78;25837;-71
2021/12/09 08:37:32;;;;;;;92.82;34.25;;;;;;;-1.88;80.36;100036.84;1792860;78;99208;-74
2021/12/09 08:39:58;;;;;;;83.95;29.55;;;;;;;-1.88;80.29;100035.53;1800501;78;32893;-72
2021/12/09 08:42:24;;;;;;;75.50;27.50;;;;;;;-1.85;80.33;100021.08;1793689;77;25878;-74
2021/12/09 08:44:52;;;;;;;81.82;31.55;;;;;;;-1.84;80.29;100011.45;1792815;77;99135;-68
2021/12/09 08:47:18;;;;;;;86.70;30.37;;;;;;;-1.80;80.37;100006.61;1799362;77;25581;-70
2021/12/09 08:49:45;;;;;;;92.45;30.88;;;;;;;-1.76;80.37;100022.36;1794709;77;99119;-69
2021/12/09 08:52:12;;;;;;;90.12;32.28;;;;;;;-1.76;80.31;100034.63;1796835;79;25885;-70
2021/12/09 08:54:38;;;;;;;82.30;31.33;;;;;;;-1.71;80.38;100047.30;1797452;77;25668;-70
2021/12/09 08:57:05;;;;;;;90.60;30.70;;;;;;;-1.68;80.40;100052.11;1793082;77;99046;-71
2021/12/09 08:59:31;;;;;;;88.15;31.00;;;;;;;-1.67;80.34;100051.23;1791819;77;25802;-73
2021/12/09 09:01:57;;;;;;;82.95;29.07;;;;;;;-1.66;80.32;100043.78;1790942;77;99336;-71
2021/12/09 09:04:23;;;;;;;73.87;27.93;;;;;;;-1.66;80.29;100035.02;1745060;80;25702;-70
2021/12/09 09:06:54;;;;;;;86.40;32.08;;;;;;;-1.67;80.22;100037.22;1737568;79;26456;-70
2021/12/09 09:09:20;;;;;;;87.37;30.17;;;;;;;-1.69;80.29;100034.59;1793628;78;99386;-68
2021/12/09 09:11:47;;;;;;;92.40;32.00;;;;;;;-1.67;80.25;100043.34;1788786;78;25990;-75
2021/12/09 09:14:13;;;;;;;91.92;30.65;;;;;;;-1.67;80.29;100042.47;1787278;77;98061;-72
2021/12/09 09:16:39;;;;;;;98.72;34.67;;;;;;;-1.65;80.30;100031.08;1795172;77;25694;-73
2021/12/09 09:19:05;;;;;;;89.90;33.02;;;;;;;-1.61;80.37;100043.77;1796446;77;30807;-69
2021/12/09 09:21:34;;;;;;;96.95;32.53;;;;;;;-1.61;80.28;100047.70;1785933;77;98927;-67
2021/12/09 09:24:01;;;;;;;86.53;31.68;;;;;;;-1.60;80.31;100033.69;1791680;77;25907;-69
2021/12/09 09:26:29;;;;;;;95.17;33.20;;;;;;;-1.58;80.26;100046.81;1758538;79;98949;-70
2021/12/09 09:28:54;;;;;;;87.97;29.92;;;;;;;-1.57;80.29;100038.05;1745162;80;26101;-72
2021/12/09 09:31:21;;;;;;;88.58;31.57;;;;;;;-1.57;80.27;100028.86;1771481;79;99560;-67
2021/12/09 09:33:47;;;;;;;92.62;31.77;;;;;;;-1.59;80.28;100030.17;1776203;80;26540;-69
2021/12/09 09:36:13;;;;;;;87.08;30.20;;;;;;;-1.60;80.23;100021.86;1773401;78;26149;-73
2021/12/09 09:38:40;;;;;;;80.32;31.62;;;;;;;-1.58;80.29;100028.42;1767837;79;99520;-68
2021/12/09 09:41:12;;;;;;;90.00;34.75;;;;;;;-1.56;80.30;100024.03;1755728;80;25812;-69
2021/12/09 09:43:55;;;;;;;;;;;;;;;-1.53;80.29;100022.70;1756887;80;99352;-70
2021/12/09 09:46:19;;;;;;;99.32;33.08;;;;;;;-1.49;80.29;100018.75;1767384;79;25722;-71
2021/12/09 09:48:48;;;;;;;93.62;33.80;;;;;;;-1.45;80.40;100015.66;1776833;78;26160;-75
2021/12/09 09:51:15;;;;;;;98.12;34.85;;;;;;;-1.36;80.42;100007.73;1771343;78;99287;-68
2021/12/09 09:53:42;;;;;;;96.37;35.43;;;;;;;-1.32;80.35;100008.14;1782058;78;25913;-72
2021/12/09 09:56:15;;;;;;;95.87;33.88;;;;;;;-1.29;80.33;99993.67;1770881;78;98948;-72
2021/12/09 09:58:46;;;;;;;91.30;33.63;;;;;;;-1.24;80.32;99987.06;1775082;78;25888;-73
2021/12/09 10:01:12;;;;;;;94.95;33.95;;;;;;;-1.26;80.19;99991.02;1776060;78;99274;-71
2021/12/09 10:03:45;;;;;;;101.35;34.23;;;;;;;-1.23;80.29;99983.55;1773990;78;28373;-72
2021/12/09 10:06:11;;;;;;;98.58;33.63;;;;;;;-1.23;80.25;99984.87;1774619;78;25939;-71
2021/12/09 10:08:38;;;;;;;87.92;32.63;;;;;;;-1.16;80.34;99978.69;1772384;78;98708;-72
2021/12/09 10:11:05;;;;;;;88.20;30.60;;;;;;;-1.14;80.24;99983.05;1770481;78;25931;-71
2021/12/09 10:13:39;;;;;;;99.70;34.08;;;;;;;-1.08;80.29;99963.73;1763170;78;99064;-72
2021/12/09 10:16:19;;;;;;;101.75;34.85;;;;;;;-1.05;80.32;99958.01;1769528;78;27390;-71
2021/12/09 10:18:47;;;;;;;99.77;34.03;;;;;;;-0.97;80.29;99951.38;1775119;78;26401;-72
2021/12/09 10:21:24;;;;;;;94.30;33.85;;;;;;;-0.95;80.22;99953.99;1774305;78;98920;-72
2021/12/09 10:24:00;;;;;;;98.40;35.70;;;;;;;-0.88;80.35;99952.62;1767854;78;25830;-71
2021/12/09 10:26:30;;;;;;;99.60;34.38;;;;;;;-0.79;80.34;99938.06;1775886;78;98708;-72
2021/12/09 10:29:20;;;;;;;91.78;33.23;;;;;;;-0.66;80.39;99946.28;1752637;79;29576;-75
2021/12/09 10:31:52;;;;;;;102.35;36.73;;;;;;;-0.58;80.31;99948.84;1747262;80;98883;-72
2021/12/09 10:37:08;;;;;;;105.05;34.43;;;;;;;-0.60;80.22;99953.25;1760628;80;25653;-73
2021/12/09 10:39:42;;;;;;;82.65;32.38;;;;;;;-0.62;80.11;99953.70;1750592;80;98771;-73
2021/12/09 10:42:18;;;;;;;88.40;33.58;;;;;;;-0.68;80.09;99949.38;1751378;80;27007;-72
2021/12/09 10:44:49;;;;;;;95.17;33.92;;;;;;;-0.77;79.97;99949.45;1750408;79;98950;-74
2021/12/09 10:47:34;;;;;;;93.37;34.33;;;;;;;-0.79;80.05;99956.93;1752521;80;26316;-70
2021/12/09 10:50:08;;;;;;;89.67;33.25;;;;;;;-0.76;80.15;99959.09;1745400;79;99393;-70
2021/12/09 10:52:43;;;;;;;92.67;32.65;;;;;;;-0.75;80.04;99956.02;1760328;80;25739;-71
2021/12/09 10:55:16;;;;;;;89.77;32.13;;;;;;;-0.73;80.11;99956.88;1745743;80;99023;-71
2021/12/09 10:57:43;;;;;;;91.65;34.20;;;;;;;-0.65;80.15;99953.73;1747439;80;25901;-67
2021/12/09 11:00:34;;;;;;;86.97;32.80;;;;;;;-0.67;79.99;99952.88;1744980;80;25762;-68
2021/12/09 11:03:11;;;;;;;88.27;32.48;;;;;;;-0.67;79.99;99959.45;1748637;80;99153;-71
2021/12/09 11:06:00;;;;;;;101.10;35.35;;;;;;;-0.66;80.01;99959.88;1754353;79;26620;-68
2021/12/09 11:08:36;;;;;;;94.20;35.23;;;;;;;-0.70;79.97;99954.22;1754685;80;98936;-69
2021/12/09 11:11:16;;;;;;;107.95;37.17;;;;;;;-0.64;80.04;99955.92;1757069;80;26386;-71
2021/12/09 11:13:56;;;;;;;88.40;33.18;;;;;;;-0.60;80.12;99968.16;1745170;80;99136;-65
2021/12/09 11:16:33;;;;;;;103.53;34.93;;;;;;;-0.62;79.85;99970.81;1749282;80;25919;-69
2021/12/09 11:19:13;;;;;;;90.30;32.13;;;;;;;-0.71;79.78;99976.16;1710620;82;25735;-66
2021/12/09 11:21:46;;;;;;;97.67;35.57;;;;;;;-0.74;79.83;99975.73;1760770;80;98603;-67
2021/12/09 11:24:17;;;;;;;96.17;35.00;;;;;;;-0.76;79.86;99975.32;1718721;81;25943;-67
2021/12/09 11:29:23;;;;;;;96.78;36.73;;;;;;;-0.79;79.79;99955.61;1741075;81;26516;-70